Time;durP1;ratioP1;P1;durP2;ratioP2;P2;SDS_P1;SDS_P2;PMS_P1;PMS_P2;Temp;Humidity;BMP_temperature;BMP_pressure;BME280_temperature;BME280_humidity;BME280_pressure;Samples;Min_cycle;Max_cycle;Signal;HPM_P1;HPM_P2
2023/04/29 00:00:45;;;;;;;144.32;52.22;;;;;;;10.30;100.00;101093.06;4880550;29;20033;-83
2023/04/29 00:03:14;;;;;;;145.07;52.75;;;;;;;10.34;100.00;101101.09;4865042;29;20071;-84
2023/04/29 00:05:39;;;;;;;135.85;47.85;;;;;;;10.21;100.00;101096.47;4882487;29;20056;-83
2023/04/29 00:08:05;;;;;;;130.63;44.47;;;;;;;10.22;100.00;101092.75;4866072;29;20457;-83
2023/04/29 00:10:30;;;;;;;132.50;44.28;;;;;;;10.19;100.00;101098.47;4865013;29;20048;-82
2023/04/29 00:12:56;;;;;;;110.03;42.28;;;;;;;10.16;100.00;101098.69;4879948;29;20036;-83
2023/04/29 00:15:22;;;;;;;101.57;41.72;;;;;;;10.11;100.00;101095.41;4865846;29;20393;-83
2023/04/29 00:17:47;;;;;;;115.20;42.58;;;;;;;10.26;100.00;101099.78;4849809;29;20084;-83
2023/04/29 00:20:13;;;;;;;110.35;42.95;;;;;;;10.10;100.00;101097.28;4850024;29;20049;-84
2023/04/29 00:22:38;;;;;;;110.93;41.20;;;;;;;10.23;100.00;101107.31;4848053;29;20042;-83
2023/04/29 00:25:05;;;;;;;123.30;43.88;;;;;;;10.15;100.00;101107.00;4881135;29;20488;-81
2023/04/29 00:27:32;;;;;;;117.28;44.28;;;;;;;10.12;100.00;101103.50;4881514;29;20132;-81
2023/04/29 00:29:57;;;;;;;122.30;40.05;;;;;;;9.97;100.00;101115.59;4864271;29;20060;-82
2023/04/29 00:32:22;;;;;;;117.10;39.50;;;;;;;9.78;100.00;101118.75;4833998;29;20060;-83
2023/04/29 00:34:50;;;;;;;112.45;39.20;;;;;;;9.92;100.00;101112.31;4880032;29;20061;-83
2023/04/29 00:37:16;;;;;;;95.55;34.88;;;;;;;9.78;100.00;101113.28;4849610;29;20097;-83
2023/04/29 00:39:41;;;;;;;112.07;37.75;;;;;;;9.73;100.00;101119.09;4863506;29;20085;-83
2023/04/29 00:42:10;;;;;;;98.78;37.40;;;;;;;9.71;100.00;101110.13;4849138;29;20481;-83
2023/04/29 00:44:35;;;;;;;104.57;35.75;;;;;;;9.85;100.00;101117.31;4849220;29;20045;-83
2023/04/29 00:47:01;;;;;;;99.35;35.03;;;;;;;9.79;100.00;101125.09;4864489;29;20056;-83
2023/04/29 00:49:27;;;;;;;86.63;34.72;;;;;;;9.81;100.00;101124.00;4879847;29;20041;-83
2023/04/29 00:51:54;;;;;;;83.63;34.53;;;;;;;9.84;100.00;101128.38;4861012;29;20481;-82
2023/04/29 00:54:20;;;;;;;85.07;34.05;;;;;;;9.80;100.00;101124.13;4883905;29;20037;-83
2023/04/29 00:56:47;;;;;;;91.10;35.78;;;;;;;9.86;100.00;101119.09;4864275;29;20096;-83
2023/04/29 00:59:14;;;;;;;80.93;32.20;;;;;;;9.89;100.00;101140.75;4848561;29;20450;-83
2023/04/29 01:01:40;;;;;;;93.40;35.00;;;;;;;9.85;100.00;101135.59;4859390;29;20079;-82
2023/04/29 01:04:06;;;;;;;91.25;35.75;;;;;;;9.88;100.00;101149.06;4830676;29;20128;-81
2023/04/29 01:07:23;;;;;;;95.35;36.72;;;;;;;9.70;100.00;101140.31;4837014;29;20040;-82
2023/04/29 01:10:03;;;;;;;89.75;34.88;;;;;;;9.74;100.00;101147.31;4827896;29;20052;-81
2023/04/29 01:12:53;;;;;;;81.82;31.58;;;;;;;9.58;100.00;101150.25;4848314;29;20081;-82
2023/04/29 01:15:54;;;;;;;84.72;34.78;;;;;;;9.66;100.00;101145.13;4864713;29;20047;-81
2023/04/29 01:18:31;;;;;;;80.65;33.53;;;;;;;9.54;100.00;101143.25;4858988;29;20390;-82
2023/04/29 01:20:58;;;;;;;81.85;33.13;;;;;;;9.56;100.00;101146.75;4879061;29;20119;-84
2023/04/29 01:23:30;;;;;;;71.00;29.67;;;;;;;9.44;100.00;101129.34;4846024;29;20037;-83
2023/04/29 01:25:57;;;;;;;69.87;31.50;;;;;;;9.62;100.00;101151.78;4846933;29;20477;-83
2023/04/29 01:28:57;;;;;;;67.50;30.25;;;;;;;9.62;100.00;101157.25;4882110;29;20041;-83
2023/04/29 01:31:29;;;;;;;65.63;29.90;;;;;;;9.56;100.00;101161.28;4857035;29;20044;-84
2023/04/29 01:34:10;;;;;;;69.03;30.45;;;;;;;9.53;100.00;101160.63;4869211;29;20037;-84
2023/04/29 01:36:44;;;;;;;64.55;29.20;;;;;;;9.54;100.00;101160.53;4864177;29;20458;-83
2023/04/29 01:39:31;;;;;;;65.57;29.42;;;;;;;9.55;100.00;101166.88;4864780;29;20092;-84
2023/04/29 01:42:10;;;;;;;69.43;29.73;;;;;;;9.59;100.00;101171.13;4864047;29;20047;-84
2023/04/29 01:44:37;;;;;;;77.60;31.83;;;;;;;9.60;100.00;101172.88;4865117;29;20382;-84
2023/04/29 01:47:04;;;;;;;67.93;29.70;;;;;;;9.45;100.00;101150.25;4850392;29;20047;-84
2023/04/29 01:49:29;;;;;;;70.28;30.83;;;;;;;9.41;100.00;101178.75;4880718;29;20041;-83
2023/04/29 01:51:55;;;;;;;72.90;29.85;;;;;;;9.40;100.00;101182.47;4847140;29;20124;-84
2023/04/29 01:54:24;;;;;;;75.72;30.60;;;;;;;9.46;100.00;101183.91;4863420;29;20409;-84
2023/04/29 01:56:50;;;;;;;79.13;31.73;;;;;;;9.40;100.00;101174.28;4846447;29;20048;-84
2023/04/29 01:59:16;;;;;;;72.13;32.42;;;;;;;9.56;100.00;101180.44;4850937;29;20044;-84
2023/04/29 02:01:41;;;;;;;74.85;33.80;;;;;;;9.45;100.00;101180.31;4848717;29;20030;-84
2023/04/29 02:04:10;;;;;;;74.28;34.03;;;;;;;9.43;100.00;101186.84;4848139;29;20096;-84
2023/04/29 02:06:35;;;;;;;79.25;33.90;;;;;;;9.46;100.00;101178.44;4825574;29;20033;-83
2023/04/29 02:09:01;;;;;;;83.97;36.92;;;;;;;9.32;100.00;101173.94;4862992;29;20477;-83
2023/04/29 02:11:26;;;;;;;91.38;37.63;;;;;;;9.32;100.00;101179.41;4843938;29;20034;-84
2023/04/29 02:13:53;;;;;;;92.43;39.83;;;;;;;9.28;100.00;101175.09;4879292;29;20044;-84
2023/04/29 02:16:19;;;;;;;100.00;40.05;;;;;;;9.37;100.00;101186.28;4848265;29;20041;-83
2023/04/29 02:18:44;;;;;;;88.18;39.75;;;;;;;9.34;100.00;101183.75;4848477;29;20047;-83
2023/04/29 02:21:11;;;;;;;95.82;40.45;;;;;;;9.38;100.00;101189.91;4863737;29;20402;-83
2023/04/29 02:23:39;;;;;;;105.85;41.08;;;;;;;9.42;100.00;101196.03;4849350;29;20151;-83
2023/04/29 02:26:05;;;;;;;86.75;37.80;;;;;;;9.43;100.00;101200.50;4880700;29;20037;-83
2023/04/29 02:28:33;;;;;;;99.13;39.17;;;;;;;9.36;100.00;101192.75;4848207;29;20037;-83
2023/04/29 02:30:58;;;;;;;89.90;38.22;;;;;;;9.32;100.00;101195.78;4877142;29;20446;-83
2023/04/29 02:33:23;;;;;;;98.28;39.50;;;;;;;9.43;100.00;101198.66;4845071;29;20125;-84
2023/04/29 02:35:49;;;;;;;99.97;38.95;;;;;;;9.37;100.00;101210.00;4834066;29;20108;-83
2023/04/29 02:38:14;;;;;;;103.75;38.13;;;;;;;9.34;100.00;101213.81;4865813;29;20124;-83
2023/04/29 02:40:42;;;;;;;103.55;39.15;;;;;;;9.33;100.00;101214.81;4882703;29;20075;-83
2023/04/29 02:43:10;;;;;;;96.68;36.78;;;;;;;9.29;100.00;101215.13;4867501;29;20096;-84
2023/04/29 02:45:39;;;;;;;88.85;33.42;;;;;;;9.34;100.00;101222.03;4867144;29;20060;-83
2023/04/29 02:48:05;;;;;;;91.90;34.08;;;;;;;9.28;100.00;101218.81;4836330;29;20433;-83
2023/04/29 02:50:31;;;;;;;87.03;34.75;;;;;;;9.28;100.00;101217.00;4898575;29;20132;-83
2023/04/29 02:52:57;;;;;;;95.15;34.63;;;;;;;9.31;100.00;101222.25;4865905;29;20029;-83
2023/04/29 02:55:23;;;;;;;86.65;34.83;;;;;;;9.35;100.00;101226.50;4866053;29;20540;-83
2023/04/29 02:57:48;;;;;;;90.88;35.30;;;;;;;9.16;100.00;101220.53;4883726;29;20096;-83
2023/04/29 03:00:14;;;;;;;87.70;34.28;;;;;;;9.35;100.00;101233.84;4867166;29;20040;-84
2023/04/29 03:02:39;;;;;;;92.50;34.70;;;;;;;9.26;100.00;101243.53;4867255;29;20068;-83
2023/04/29 03:05:05;;;;;;;94.13;36.63;;;;;;;9.25;100.00;101249.09;4866718;29;20085;-84
2023/04/29 03:07:31;;;;;;;97.15;36.22;;;;;;;9.30;100.00;101242.34;4837014;29;20037;-83
2023/04/29 03:09:56;;;;;;;88.70;33.28;;;;;;;9.24;100.00;101248.22;4867198;29;20119;-83
2023/04/29 03:12:22;;;;;;;87.63;33.15;;;;;;;9.23;100.00;101241.03;4882609;29;20068;-83
2023/04/29 03:14:47;;;;;;;94.10;33.92;;;;;;;9.32;100.00;101250.44;4850858;29;20111;-82
2023/04/29 03:17:14;;;;;;;92.85;34.80;;;;;;;9.30;100.00;101253.28;4848479;29;20073;-84
2023/04/29 03:19:39;;;;;;;92.78;34.85;;;;;;;9.20;100.00;101225.69;4866994;29;20052;-82
2023/04/29 03:22:07;;;;;;;93.78;34.25;;;;;;;9.24;100.00;101240.03;4854117;29;20039;-82
2023/04/29 03:24:32;;;;;;;89.28;34.30;;;;;;;9.25;100.00;101232.69;4852784;29;20041;-84
2023/04/29 03:26:59;;;;;;;88.40;34.95;;;;;;;9.20;100.00;101231.16;4885955;29;20374;-84
2023/04/29 03:29:26;;;;;;;97.35;34.08;;;;;;;9.21;100.00;101242.97;4864919;29;20518;-85
2023/04/29 03:31:52;;;;;;;91.22;33.83;;;;;;;9.29;100.00;101254.25;4867197;29;20037;-84
2023/04/29 03:34:18;;;;;;;84.63;32.47;;;;;;;9.36;100.00;101254.72;4865800;29;20064;-84
2023/04/29 03:36:43;;;;;;;92.93;35.13;;;;;;;9.30;100.00;101244.22;4875855;29;20045;-83
2023/04/29 03:39:10;;;;;;;94.00;34.50;;;;;;;9.29;100.00;101256.13;4834395;29;20041;-83
2023/04/29 03:41:36;;;;;;;103.20;35.40;;;;;;;9.24;100.00;101259.16;4863372;29;20049;-84
2023/04/29 03:44:01;;;;;;;89.93;34.60;;;;;;;9.25;100.00;101254.56;4850029;29;20041;-84
2023/04/29 03:46:27;;;;;;;97.50;34.53;;;;;;;9.28;100.00;101263.44;4847742;29;20128;-84
2023/04/29 03:48:54;;;;;;;101.63;36.00;;;;;;;9.41;100.00;101262.59;4849602;29;21260;-84
2023/04/29 03:51:24;;;;;;;99.68;34.40;;;;;;;9.19;100.00;101266.78;4850722;29;20049;-83
2023/04/29 03:53:51;;;;;;;116.20;35.47;;;;;;;9.13;100.00;101259.00;4857925;29;20564;-82
2023/04/29 03:56:16;;;;;;;96.95;35.20;;;;;;;9.21;100.00;101275.75;4851397;29;20121;-82
2023/04/29 03:58:42;;;;;;;107.30;37.17;;;;;;;9.28;100.00;101279.84;4845181;29;20124;-82
2023/04/29 04:01:11;;;;;;;101.50;36.40;;;;;;;9.22;100.00;101282.97;4834724;29;20124;-82
2023/04/29 04:03:39;;;;;;;105.07;35.13;;;;;;;9.29;100.00;101276.09;4865987;29;20486;-83
2023/04/29 04:06:04;;;;;;;97.07;34.15;;;;;;;9.25;100.00;101282.78;4849523;29;20181;-83
2023/04/29 04:08:30;;;;;;;90.05;34.15;;;;;;;9.23;100.00;101279.28;4849479;29;20128;-82
2023/04/29 04:11:01;;;;;;;95.47;32.42;;;;;;;9.23;100.00;101286.56;4850631;29;20072;-82
2023/04/29 04:13:30;;;;;;;93.63;32.38;;;;;;;9.26;100.00;101291.84;4880945;29;20061;-83
2023/04/29 04:15:55;;;;;;;87.07;31.52;;;;;;;9.19;100.00;101292.25;4865740;29;20557;-83
2023/04/29 04:18:21;;;;;;;98.85;33.35;;;;;;;9.18;100.00;101295.06;4863035;29;20499;-82
2023/04/29 04:20:46;;;;;;;82.80;31.58;;;;;;;9.15;100.00;101287.97;4834474;29;20040;-82
2023/04/29 04:23:12;;;;;;;78.20;29.73;;;;;;;9.09;100.00;101293.84;4845294;29;20041;-83
2023/04/29 04:25:43;;;;;;;89.20;31.30;;;;;;;9.20;100.00;101294.00;4872942;29;20029;-81
2023/04/29 04:28:09;;;;;;;86.93;31.25;;;;;;;9.17;100.00;101293.34;4865704;29;20049;-81
2023/04/29 04:30:34;;;;;;;77.70;29.75;;;;;;;9.18;100.00;101295.06;4881147;29;20037;-81
2023/04/29 04:33:02;;;;;;;93.32;30.63;;;;;;;9.24;100.00;101300.13;4864959;29;20060;-83
2023/04/29 04:35:28;;;;;;;93.45;31.58;;;;;;;9.18;100.00;101306.91;4889761;29;20055;-83
2023/04/29 04:37:54;;;;;;;84.38;31.15;;;;;;;9.09;100.00;101302.03;4849487;29;20037;-83
2023/04/29 04:40:19;;;;;;;84.20;30.13;;;;;;;9.09;100.00;101314.81;4847914;29;20128;-83
2023/04/29 04:42:45;;;;;;;81.47;31.48;;;;;;;9.17;100.00;101317.91;4880690;29;20503;-83
2023/04/29 04:45:11;;;;;;;83.05;29.63;;;;;;;9.08;100.00;101300.25;4834346;29;20037;-83
2023/04/29 04:47:40;;;;;;;102.68;32.75;;;;;;;9.27;100.00;101324.53;4867396;29;20037;-83
2023/04/29 04:50:07;;;;;;;86.78;32.22;;;;;;;9.25;100.00;101325.59;4862216;29;20072;-82
2023/04/29 04:52:35;;;;;;;96.63;32.63;;;;;;;9.27;100.00;101324.53;4832603;29;20061;-83
2023/04/29 04:55:01;;;;;;;82.80;29.55;;;;;;;9.22;100.00;101329.41;4846442;29;20160;-82
2023/04/29 04:57:26;;;;;;;80.70;32.05;;;;;;;9.15;100.00;101337.16;4846290;29;20041;-83
2023/04/29 04:59:51;;;;;;;89.53;32.05;;;;;;;9.26;100.00;101341.88;4864849;29;20049;-83
2023/04/29 05:02:17;;;;;;;83.00;31.83;;;;;;;9.20;100.00;101345.03;4846355;29;20034;-83
2023/04/29 05:04:43;;;;;;;91.40;32.35;;;;;;;9.09;100.00;101328.47;4863198;29;20057;-82
2023/04/29 05:07:09;;;;;;;83.68;31.95;;;;;;;9.23;100.00;101347.59;4882655;29;20092;-82
2023/04/29 05:09:35;;;;;;;86.25;32.78;;;;;;;9.31;100.00;101363.44;4849884;29;20135;-82
2023/04/29 05:12:03;;;;;;;89.43;34.25;;;;;;;9.27;100.00;101364.66;4865757;29;20089;-83
2023/04/29 05:14:29;;;;;;;81.20;32.90;;;;;;;9.29;100.00;101360.81;4848701;29;20420;-83
2023/04/29 05:16:58;;;;;;;92.78;33.88;;;;;;;9.36;100.00;101362.19;4848552;29;20041;-83
2023/04/29 05:19:24;;;;;;;82.00;32.20;;;;;;;9.27;100.00;101368.25;4872015;29;20049;-82
2023/04/29 05:21:50;;;;;;;94.45;33.08;;;;;;;9.27;100.00;101361.91;4850262;29;20045;-82
2023/04/29 05:24:15;;;;;;;81.88;32.72;;;;;;;9.30;100.00;101364.44;4865233;29;20041;-82
2023/04/29 05:26:42;;;;;;;81.80;32.30;;;;;;;9.23;100.00;101372.16;4847496;29;20040;-83
2023/04/29 05:29:09;;;;;;;92.57;33.10;;;;;;;9.32;100.00;101381.63;4848349;29;20043;-82
2023/04/29 05:31:35;;;;;;;81.80;33.92;;;;;;;9.32;100.00;101360.63;4871227;29;20025;-82
2023/04/29 05:34:00;;;;;;;81.72;31.30;;;;;;;9.37;100.00;101380.31;4847191;29;20052;-83
2023/04/29 05:36:26;;;;;;;95.05;33.20;;;;;;;9.43;100.00;101389.09;4840977;29;20049;-82
2023/04/29 05:38:52;;;;;;;82.07;33.22;;;;;;;9.25;100.00;101372.03;4862720;29;20045;-81
2023/04/29 05:41:17;;;;;;;77.85;30.45;;;;;;;9.23;100.00;101387.66;4849087;29;20045;-81
2023/04/29 05:43:43;;;;;;;76.53;31.45;;;;;;;9.22;100.00;101391.41;4844564;29;20040;-82
2023/04/29 05:46:08;;;;;;;84.35;30.90;;;;;;;9.36;100.00;101399.53;4864594;29;20405;-81
2023/04/29 05:48:34;;;;;;;76.22;31.50;;;;;;;9.31;100.00;101391.69;4892954;29;20396;-82
2023/04/29 05:50:59;;;;;;;81.22;30.13;;;;;;;9.36;100.00;101399.53;4861179;29;20040;-80
2023/04/29 05:53:28;;;;;;;75.38;30.63;;;;;;;9.37;100.00;101396.72;4872100;29;20037;-84
2023/04/29 05:55:53;;;;;;;81.47;30.50;;;;;;;9.52;100.00;101407.63;4864178;29;20069;-82
2023/04/29 05:58:19;;;;;;;69.47;28.77;;;;;;;9.55;100.00;101415.63;4879787;29;20102;-81
2023/04/29 06:00:44;;;;;;;70.30;30.13;;;;;;;9.41;100.00;101411.06;4880567;29;20044;-82
2023/04/29 06:03:11;;;;;;;74.40;28.75;;;;;;;9.36;100.00;101416.84;4845703;29;20101;-82
2023/04/29 06:05:36;;;;;;;64.00;28.00;;;;;;;9.38;100.00;101414.88;4877478;29;20052;-82
2023/04/29 06:08:03;;;;;;;81.22;31.13;;;;;;;9.53;100.00;101428.53;4879543;29;20400;-82
2023/04/29 06:10:29;;;;;;;71.75;28.85;;;;;;;9.44;100.00;101431.84;4863889;29;20073;-81
2023/04/29 06:12:54;;;;;;;62.10;28.17;;;;;;;9.45;100.00;101426.28;4879234;29;20037;-82
2023/04/29 06:15:19;;;;;;;67.35;28.02;;;;;;;9.51;100.00;101441.41;4848404;29;20040;-82
2023/04/29 06:17:46;;;;;;;65.13;28.27;;;;;;;9.42;100.00;101439.28;4871880;29;20041;-79
2023/04/29 06:20:11;;;;;;;57.70;26.27;;;;;;;9.16;100.00;101407.19;4869661;29;20037;-79
2023/04/29 06:22:37;;;;;;;62.67;27.52;;;;;;;9.31;100.00;101427.19;4880080;29;20184;-80
2023/04/29 06:25:02;;;;;;;68.13;29.25;;;;;;;9.34;100.00;101451.56;4878320;29;20052;-80
2023/04/29 06:27:28;;;;;;;67.60;29.13;;;;;;;9.27;100.00;101430.22;4863173;29;20041;-81
2023/04/29 06:29:54;;;;;;;59.00;27.45;;;;;;;9.26;100.00;101428.47;4863019;29;20476;-78
2023/04/29 06:32:19;;;;;;;63.22;28.27;;;;;;;9.47;100.00;101462.59;4863944;29;20405;-81
2023/04/29 06:34:45;;;;;;;64.53;27.60;;;;;;;9.47;100.00;101450.78;4866493;29;20049;-79
2023/04/29 06:37:10;;;;;;;59.75;28.05;;;;;;;9.53;100.00;101456.72;4848802;29;20132;-80
2023/04/29 06:39:36;;;;;;;65.75;27.42;;;;;;;9.45;100.00;101458.22;4828570;29;20041;-80
2023/04/29 06:42:02;;;;;;;57.25;27.63;;;;;;;9.48;100.00;101471.69;4860567;29;20041;-81
2023/04/29 06:44:28;;;;;;;67.50;28.35;;;;;;;9.43;100.00;101482.91;4883875;29;20037;-82
2023/04/29 06:46:53;;;;;;;58.47;26.27;;;;;;;9.49;100.00;101481.63;4846995;29;20033;-80
2023/04/29 06:49:20;;;;;;;61.60;26.25;;;;;;;9.53;100.00;101483.19;4867355;29;20048;-81
2023/04/29 06:51:46;;;;;;;57.00;25.55;;;;;;;9.46;100.00;101481.81;4878614;29;20057;-81
2023/04/29 06:54:11;;;;;;;61.13;26.25;;;;;;;9.57;100.00;101482.00;4878072;29;20120;-80
2023/04/29 06:56:37;;;;;;;58.90;26.83;;;;;;;9.56;100.00;101477.53;4880295;29;20500;-80
2023/04/29 06:59:03;;;;;;;55.92;25.75;;;;;;;9.65;100.00;101490.59;4873509;29;20049;-82
2023/04/29 07:01:29;;;;;;;55.20;25.30;;;;;;;9.78;100.00;101496.13;4875661;29;20037;-81
2023/04/29 07:03:54;;;;;;;49.53;25.02;;;;;;;9.78;100.00;101501.59;4875498;29;20044;-80
2023/04/29 07:06:20;;;;;;;48.30;24.58;;;;;;;9.87;100.00;101497.38;4877619;29;20037;-86
2023/04/29 07:08:45;;;;;;;46.10;24.50;;;;;;;9.93;100.00;101505.19;4832407;29;20084;-88
2023/04/29 07:11:13;;;;;;;52.83;24.73;;;;;;;10.11;100.00;101509.44;4875303;29;20505;-79
2023/04/29 07:13:39;;;;;;;57.83;25.38;;;;;;;10.08;100.00;101516.97;4879085;29;20390;-80
2023/04/29 07:16:05;;;;;;;52.90;25.30;;;;;;;10.08;100.00;101515.13;4878767;29;20053;-80
2023/04/29 07:18:30;;;;;;;47.00;24.05;;;;;;;10.10;100.00;101513.16;4881536;29;20045;-82
2023/04/29 07:21:00;;;;;;;47.03;24.38;;;;;;;10.21;100.00;101523.38;4848233;29;20097;-81
2023/04/29 07:23:26;;;;;;;51.53;24.50;;;;;;;10.21;100.00;101523.38;4860209;29;20041;-80
2023/04/29 07:25:51;;;;;;;62.10;25.60;;;;;;;10.14;100.00;101523.91;4883389;29;20068;-80
2023/04/29 07:28:17;;;;;;;59.53;25.73;;;;;;;10.20;100.00;101531.69;4850987;29;20174;-80
2023/04/29 07:30:42;;;;;;;58.05;26.20;;;;;;;10.28;100.00;101526.56;4882635;29;20108;-80
2023/04/29 07:33:09;;;;;;;50.88;25.50;;;;;;;10.22;100.00;101530.63;4865001;29;20077;-79
2023/04/29 07:35:34;;;;;;;56.92;24.95;;;;;;;10.17;100.00;101541.00;4845880;29;20049;-80
2023/04/29 07:38:00;;;;;;;49.33;23.90;;;;;;;10.33;100.00;101529.94;4861107;29;20520;-79
2023/04/29 07:40:28;;;;;;;58.08;26.83;;;;;;;10.51;100.00;101537.88;4848227;29;20107;-80
2023/04/29 07:42:54;;;;;;;51.35;25.75;;;;;;;10.50;100.00;101541.63;4841798;29;20106;-81
2023/04/29 07:45:19;;;;;;;47.78;25.63;;;;;;;10.55;100.00;101547.66;4863771;29;20116;-81
2023/04/29 07:47:45;;;;;;;49.00;25.20;;;;;;;10.54;100.00;101543.16;4873260;29;20041;-83
2023/04/29 07:50:10;;;;;;;55.50;24.85;;;;;;;10.71;100.00;101544.72;4863150;29;20520;-83
2023/04/29 07:52:36;;;;;;;50.65;24.05;;;;;;;10.70;100.00;101553.94;4849017;29;20057;-79
2023/04/29 07:55:01;;;;;;;44.83;22.00;;;;;;;10.78;100.00;101552.41;4866997;29;20541;-83
2023/04/29 07:57:27;;;;;;;42.15;22.02;;;;;;;10.73;100.00;101559.22;4865337;29;20052;-81
2023/04/29 07:59:53;;;;;;;39.63;22.45;;;;;;;10.77;100.00;101550.69;4881685;29;20033;-80
2023/04/29 08:02:18;;;;;;;46.90;23.23;;;;;;;10.84;100.00;101560.22;4891041;29;20505;-80
2023/04/29 08:04:44;;;;;;;42.75;22.80;;;;;;;10.77;100.00;101561.63;4853392;29;20053;-82
2023/04/29 08:07:09;;;;;;;44.08;24.42;;;;;;;10.65;100.00;101548.78;4851523;29;20037;-82
2023/04/29 08:09:35;;;;;;;39.00;21.40;;;;;;;10.46;100.00;101551.88;4883207;29;20093;-82
2023/04/29 08:12:01;;;;;;;39.10;23.50;;;;;;;10.51;100.00;101549.72;4867172;29;20086;-83
2023/04/29 08:14:26;;;;;;;38.47;20.98;;;;;;;10.61;100.00;101580.09;4851456;29;20132;-82
2023/04/29 08:16:53;;;;;;;41.83;23.27;;;;;;;10.73;100.00;101568.28;4855920;29;20039;-82
2023/04/29 08:19:18;;;;;;;43.60;22.83;;;;;;;10.78;100.00;101571.59;4846283;29;20049;-82
2023/04/29 08:21:45;;;;;;;40.22;21.58;;;;;;;10.74;100.00;101570.06;4852556;29;20383;-82
2023/04/29 08:24:10;;;;;;;41.15;20.60;;;;;;;10.74;100.00;101578.28;4866674;29;20120;-82
2023/04/29 08:26:36;;;;;;;38.33;21.83;;;;;;;10.94;100.00;101576.03;4868526;29;20049;-82
2023/04/29 08:29:01;;;;;;;38.25;20.77;;;;;;;11.09;100.00;101582.31;4885724;29;20107;-81
2023/04/29 08:31:27;;;;;;;37.58;21.48;;;;;;;10.88;100.00;101590.16;4885178;29;20556;-81
2023/04/29 08:33:52;;;;;;;37.63;21.40;;;;;;;11.12;100.00;101585.72;4853896;29;20025;-82
2023/04/29 08:36:18;;;;;;;42.22;22.13;;;;;;;11.09;100.00;101585.06;4865258;29;20045;-82
2023/04/29 08:38:43;;;;;;;36.72;21.00;;;;;;;11.23;100.00;101587.69;4897456;29;20492;-82
2023/04/29 08:41:10;;;;;;;42.75;21.33;;;;;;;11.48;100.00;101591.44;4872711;29;20486;-81
2023/04/29 08:43:36;;;;;;;40.60;20.73;;;;;;;11.65;100.00;101585.63;4834147;29;20037;-82
2023/04/29 08:46:03;;;;;;;35.22;20.63;;;;;;;11.85;100.00;101588.78;4866636;29;20044;-82
2023/04/29 08:48:33;;;;;;;35.30;19.05;;;;;;;12.09;100.00;101602.63;4881861;29;20037;-82
2023/04/29 08:51:00;;;;;;;36.17;20.65;;;;;;;11.79;100.00;101598.34;4882804;29;20131;-82
2023/04/29 08:53:26;;;;;;;32.60;17.73;;;;;;;12.06;100.00;101602.84;4868698;29;20056;-82
2023/04/29 08:55:53;;;;;;;36.65;20.30;;;;;;;11.84;100.00;101592.50;4866053;29;20030;-81
2023/04/29 08:58:19;;;;;;;40.85;19.35;;;;;;;12.18;100.00;101610.16;4879791;29;20044;-82
2023/04/29 09:00:45;;;;;;;32.55;18.73;;;;;;;12.05;100.00;101601.09;4850030;29;20052;-82
2023/04/29 09:03:33;;;;;;;36.97;20.35;;;;;;;11.94;100.00;101605.50;4865227;29;20045;-82
2023/04/29 09:06:00;;;;;;;33.50;19.65;;;;;;;12.05;100.00;101606.56;4882537;29;20037;-81
2023/04/29 09:08:26;;;;;;;36.35;20.02;;;;;;;12.33;100.00;101613.66;4880961;29;20037;-82
2023/04/29 09:10:52;;;;;;;34.17;20.02;;;;;;;12.18;100.00;101615.66;4847845;29;20412;-81
2023/04/29 09:13:29;;;;;;;37.08;18.60;;;;;;;11.94;100.00;101610.97;4865166;29;20111;-81
2023/04/29 09:15:55;;;;;;;35.67;19.02;;;;;;;12.15;100.00;101615.91;4864818;29;20501;-81
2023/04/29 09:18:49;;;;;;;37.47;19.75;;;;;;;12.48;100.00;101619.88;4882723;29;20081;-81
2023/04/29 09:21:18;;;;;;;34.67;18.02;;;;;;;13.18;100.00;101619.09;4866175;29;20113;-81
2023/04/29 09:23:45;;;;;;;45.00;18.65;;;;;;;12.75;100.00;101624.28;4883635;29;20033;-81
2023/04/29 09:26:11;;;;;;;28.67;16.83;;;;;;;13.10;100.00;101626.19;4858099;29;20043;-81
2023/04/29 09:28:38;;;;;;;30.52;17.77;;;;;;;12.57;100.00;101630.16;4857269;29;21102;-81
2023/04/29 09:31:07;;;;;;;30.88;17.30;;;;;;;12.69;100.00;101628.34;4844989;29;20041;-80
2023/04/29 09:33:53;;;;;;;32.28;17.52;;;;;;;13.04;100.00;101627.53;4865639;29;20037;-79
2023/04/29 09:36:39;;;;;;;32.95;17.98;;;;;;;13.15;100.00;101629.44;4858070;29;20076;-81
2023/04/29 09:39:10;;;;;;;32.05;17.85;;;;;;;13.00;100.00;101623.25;4818612;29;20034;-80
2023/04/29 09:41:38;;;;;;;28.85;18.10;;;;;;;12.85;100.00;101622.56;4859146;29;20072;-81
2023/04/29 09:44:08;;;;;;;32.45;17.70;;;;;;;12.99;100.00;101625.13;4840571;29;20034;-80
2023/04/29 09:46:35;;;;;;;28.00;16.58;;;;;;;12.93;100.00;101643.97;4832367;29;20125;-80
2023/04/29 09:49:21;;;;;;;28.35;15.80;;;;;;;13.21;100.00;101634.47;4841884;29;20037;-81
2023/04/29 09:52:03;;;;;;;35.85;16.23;;;;;;;13.36;100.00;101630.56;4876395;29;20033;-81
2023/04/29 09:54:31;;;;;;;27.30;16.63;;;;;;;13.66;100.00;101631.88;4861283;29;20037;-82
2023/04/29 09:56:58;;;;;;;37.63;21.90;;;;;;;13.21;100.00;101637.22;4814119;29;20046;-80
2023/04/29 09:59:24;;;;;;;31.20;19.77;;;;;;;13.17;100.00;101644.84;4855778;29;20034;-80
2023/04/29 10:01:57;;;;;;;33.28;17.30;;;;;;;12.80;100.00;101642.16;4872027;29;20089;-80
2023/04/29 10:04:26;;;;;;;31.65;18.52;;;;;;;12.67;100.00;101649.56;4860747;29;20561;-81
2023/04/29 10:06:54;;;;;;;37.45;17.20;;;;;;;13.14;100.00;101655.19;4875494;29;20138;-80
2023/04/29 10:09:21;;;;;;;31.52;16.65;;;;;;;12.94;100.00;101657.59;4859003;29;20076;-81
2023/04/29 10:11:53;;;;;;;28.15;15.55;;;;;;;13.01;100.00;101658.00;4856648;29;20494;-81
2023/04/29 10:14:25;;;;;;;25.75;15.38;;;;;;;13.28;100.00;101654.13;4836077;29;20347;-81
2023/04/29 10:17:10;;;;;;;30.35;16.35;;;;;;;13.26;100.00;101658.88;4843696;29;20110;-80
2023/04/29 10:19:51;;;;;;;32.30;16.17;;;;;;;13.46;100.00;101660.94;4839686;29;20136;-80
2023/04/29 10:22:26;;;;;;;29.73;15.70;;;;;;;13.76;100.00;101663.16;4839767;29;20103;-81
2023/04/29 10:24:54;;;;;;;24.13;14.70;;;;;;;14.29;100.00;101662.56;4839786;29;20038;-80
2023/04/29 10:27:21;;;;;;;30.77;13.80;;;;;;;14.20;100.00;101660.59;4841205;29;20490;-81
2023/04/29 10:29:51;;;;;;;31.15;15.60;;;;;;;14.30;100.00;101656.06;4860730;29;20041;-80
2023/04/29 10:32:18;;;;;;;32.08;15.57;;;;;;;14.30;100.00;101667.09;4832368;29;20049;-80
2023/04/29 10:34:44;;;;;;;24.13;13.52;;;;;;;14.55;100.00;101664.19;4837812;29;20114;-80
2023/04/29 10:37:15;;;;;;;30.83;15.45;;;;;;;14.57;100.00;101663.03;4851052;29;20029;-80
2023/04/29 10:40:02;;;;;;;35.47;14.27;;;;;;;15.09;100.00;101663.34;4868433;29;20049;-79
2023/04/29 10:42:42;;;;;;;33.00;14.90;;;;;;;14.46;100.00;101661.19;4877970;29;20041;-82
2023/04/29 10:45:26;;;;;;;24.77;14.80;;;;;;;14.22;100.00;101663.22;4884305;29;20516;-80
2023/04/29 10:48:01;;;;;;;28.02;13.95;;;;;;;14.48;100.00;101667.44;4872025;29;20101;-81
2023/04/29 10:50:47;;;;;;;24.35;12.93;;;;;;;14.53;100.00;101664.31;4880352;29;20096;-81
2023/04/29 10:53:20;;;;;;;24.25;12.68;;;;;;;14.25;100.00;101668.44;4869090;29;20049;-81
2023/04/29 10:55:54;;;;;;;32.03;12.70;;;;;;;14.09;100.00;101668.84;4850895;29;20079;-82
2023/04/29 10:58:35;;;;;;;22.38;13.10;;;;;;;14.16;100.00;101676.47;4861319;29;20060;-81
2023/04/29 11:01:00;;;;;;;23.92;13.52;;;;;;;14.21;100.00;101659.56;4882984;29;20446;-80
2023/04/29 11:03:54;;;;;;;19.95;12.93;;;;;;;14.38;100.00;101663.72;4849888;29;20078;-82
2023/04/29 11:06:25;;;;;;;20.65;13.35;;;;;;;14.56;100.00;101669.59;4882586;29;20044;-81
2023/04/29 11:09:14;;;;;;;22.35;11.38;;;;;;;15.44;100.00;101667.69;4883869;29;20033;-81